createdAt,value
2018-08-24T00:01:12.585Z,25.46
2018-08-24T00:03:40.021Z,25.44
2018-08-24T00:06:07.514Z,25.47
2018-08-24T00:08:34.974Z,25.48
2018-08-24T00:11:02.407Z,25.51
2018-08-24T00:13:29.872Z,25.51
2018-08-24T00:15:57.601Z,25.49
2018-08-24T00:18:25.026Z,25.44
2018-08-24T00:20:52.484Z,25.43
2018-08-24T00:23:19.910Z,25.45
2018-08-24T00:25:47.321Z,25.39
2018-08-24T00:28:14.927Z,25.39
2018-08-24T00:30:42.410Z,25.41
2018-08-24T00:33:09.887Z,25.45
2018-08-24T00:35:37.439Z,25.45
2018-08-24T00:38:04.868Z,25.36
2018-08-24T00:40:32.297Z,25.35
2018-08-24T00:42:59.760Z,25.38
2018-08-24T00:45:27.194Z,25.39
2018-08-24T00:47:54.631Z,25.53
2018-08-24T00:50:22.093Z,25.62
2018-08-24T00:52:49.551Z,25.66
2018-08-24T00:55:17.059Z,25.66
2018-08-24T00:57:44.512Z,25.62
2018-08-24T01:00:11.953Z,25.63
2018-08-24T01:02:39.474Z,25.50
2018-08-24T01:05:06.889Z,25.51
2018-08-24T01:07:34.449Z,25.55
2018-08-24T01:10:01.988Z,25.50
2018-08-24T01:12:29.426Z,25.51
2018-08-24T01:14:57.577Z,25.54
2018-08-24T01:20:20.864Z,25.59
2018-08-24T01:22:48.369Z,24.59
2018-08-24T01:25:15.799Z,23.38
2018-08-24T01:27:43.268Z,22.61
2018-08-24T01:30:10.803Z,22.36
2018-08-24T01:32:41.035Z,22.19
2018-08-24T01:35:08.561Z,22.25
2018-08-24T01:37:36.043Z,22.48
2018-08-24T01:40:03.487Z,22.41
2018-08-24T01:42:30.922Z,22.41
2018-08-24T01:44:58.520Z,22.46
2018-08-24T01:47:25.966Z,22.28
2018-08-24T01:49:53.498Z,22.24
2018-08-24T01:52:20.929Z,22.35
2018-08-24T01:54:48.406Z,22.33
2018-08-24T01:57:15.835Z,22.37
2018-08-24T01:59:43.320Z,22.12
2018-08-24T02:02:10.795Z,22.02
2018-08-24T02:04:38.267Z,22.20
2018-08-24T02:07:05.727Z,22.14
2018-08-24T02:09:33.150Z,22.19
2018-08-24T02:12:01.123Z,22.17
2018-08-24T02:14:28.677Z,22.08
2018-08-24T02:16:56.143Z,21.91
2018-08-24T02:19:23.600Z,21.81
2018-08-24T02:24:43.219Z,21.92
2018-08-24T02:27:10.679Z,21.80
2018-08-24T02:29:38.127Z,21.84
2018-08-24T02:32:05.847Z,21.89
2018-08-24T02:34:33.324Z,21.95
2018-08-24T02:37:00.779Z,21.87
2018-08-24T02:39:28.268Z,21.83
2018-08-24T02:41:55.699Z,21.83
2018-08-24T02:44:23.110Z,21.84
2018-08-24T02:46:50.552Z,21.91
2018-08-24T02:49:17.959Z,21.99
2018-08-24T02:51:45.350Z,21.95
2018-08-24T02:54:12.765Z,21.91
2018-08-24T02:56:40.995Z,21.92
2018-08-24T02:59:08.481Z,21.98
2018-08-24T03:01:35.930Z,22.03
2018-08-24T03:04:03.394Z,22.04
2018-08-24T03:06:30.910Z,22.10
2018-08-24T03:08:58.313Z,22.12
2018-08-24T03:11:25.800Z,22.12
2018-08-24T03:13:53.297Z,22.02
2018-08-24T03:16:20.820Z,22.00
2018-08-24T03:18:48.312Z,21.99
2018-08-24T03:21:15.717Z,21.96
2018-08-24T03:23:43.233Z,21.90
2018-08-24T03:26:10.664Z,21.97
2018-08-24T03:28:38.140Z,22.05
2018-08-24T03:31:05.560Z,21.99
2018-08-24T03:33:32.977Z,21.97
2018-08-24T03:36:00.417Z,21.93
2018-08-24T03:38:27.904Z,21.95
2018-08-24T03:43:29.323Z,22.09
2018-08-24T03:45:56.957Z,22.08
2018-08-24T03:48:24.397Z,22.13
2018-08-24T03:50:51.898Z,22.10
2018-08-24T03:53:19.406Z,22.08
2018-08-24T03:55:46.929Z,21.96
2018-08-24T03:58:14.374Z,21.91
2018-08-24T04:00:41.792Z,21.89
2018-08-24T04:03:09.340Z,21.97
2018-08-24T04:05:36.738Z,21.92
2018-08-24T04:08:04.183Z,21.95
2018-08-24T04:10:31.651Z,22.00
2018-08-24T04:12:59.134Z,22.03
2018-08-24T04:15:26.624Z,22.00
2018-08-24T04:17:54.067Z,21.98
2018-08-24T04:20:21.543Z,22.02
2018-08-24T04:22:49.000Z,22.11
2018-08-24T04:25:16.426Z,22.16
2018-08-24T04:27:43.860Z,22.15
2018-08-24T04:30:11.322Z,22.13
2018-08-24T04:32:39.704Z,22.10
2018-08-24T04:35:07.241Z,22.08
2018-08-24T04:37:34.685Z,22.01
2018-08-24T04:40:02.156Z,22.04
2018-08-24T04:42:29.585Z,22.10
2018-08-24T04:44:57.125Z,22.14
2018-08-24T04:47:24.527Z,22.21
2018-08-24T04:49:52.027Z,22.24
2018-08-24T04:52:19.507Z,22.19
2018-08-24T04:54:46.914Z,22.08
2018-08-24T04:57:14.365Z,22.05
2018-08-24T04:59:41.823Z,21.98
2018-08-24T05:02:09.271Z,22.00
2018-08-24T05:04:36.703Z,22.03
2018-08-24T05:07:04.137Z,22.08
2018-08-24T05:09:31.674Z,22.17
2018-08-24T05:11:59.749Z,22.25
2018-08-24T05:14:27.223Z,22.30
2018-08-24T05:16:54.676Z,22.37
2018-08-24T05:19:22.120Z,22.44
2018-08-24T05:21:49.534Z,22.48
2018-08-24T05:24:17.094Z,22.55
2018-08-24T05:26:44.698Z,22.64
2018-08-24T05:29:12.154Z,22.74
2018-08-24T05:31:39.683Z,22.84
2018-08-24T05:34:07.165Z,22.90
2018-08-24T05:36:34.638Z,22.95
2018-08-24T05:39:02.211Z,23.07
2018-08-24T05:41:29.626Z,23.13
2018-08-24T05:43:57.064Z,23.25
2018-08-24T05:46:24.500Z,23.26
2018-08-24T05:48:52.209Z,23.35
2018-08-24T05:51:20.008Z,23.43
2018-08-24T05:53:47.417Z,23.42
2018-08-24T05:56:14.936Z,23.48
2018-08-24T05:58:42.426Z,23.59
2018-08-24T06:01:09.981Z,23.68
2018-08-24T06:03:37.368Z,23.76
2018-08-24T06:06:04.785Z,23.88
2018-08-24T06:08:32.289Z,23.91
2018-08-24T06:10:59.745Z,24.06
2018-08-24T06:13:27.231Z,24.17
2018-08-24T06:15:54.804Z,24.04
2018-08-24T06:18:22.204Z,23.95
2018-08-24T06:20:49.695Z,23.76
2018-08-24T06:23:17.226Z,23.76
2018-08-24T06:25:44.725Z,23.67
2018-08-24T06:28:12.159Z,23.57
2018-08-24T06:30:39.662Z,23.70
2018-08-24T06:33:07.070Z,23.73
2018-08-24T06:35:34.561Z,23.68
2018-08-24T06:38:02.112Z,23.83
2018-08-24T06:40:29.600Z,23.67
2018-08-24T06:42:57.286Z,23.81
2018-08-24T06:45:24.753Z,23.92
2018-08-24T06:47:52.215Z,23.94
2018-08-24T06:50:19.699Z,24.24
2018-08-24T06:52:47.161Z,24.71
2018-08-24T06:55:14.604Z,24.85
2018-08-24T06:57:42.379Z,24.89
2018-08-24T07:00:09.934Z,24.65
2018-08-24T07:02:37.468Z,24.39
2018-08-24T07:05:04.928Z,24.31
2018-08-24T07:07:32.433Z,24.55
2018-08-24T07:09:59.901Z,24.88
2018-08-24T07:12:27.343Z,25.42
2018-08-24T07:14:54.801Z,26.25
2018-08-24T07:17:22.260Z,25.91
2018-08-24T07:19:50.194Z,25.09
2018-08-24T07:22:17.703Z,24.70
2018-08-24T07:24:45.111Z,24.68
2018-08-24T07:27:12.593Z,24.94
2018-08-24T07:29:40.086Z,25.82
2018-08-24T07:32:07.565Z,26.40
2018-08-24T07:34:35.930Z,26.69
2018-08-24T07:37:03.375Z,26.81
2018-08-24T07:39:30.873Z,26.67
2018-08-24T07:41:58.467Z,27.14
2018-08-24T07:44:25.908Z,27.82
2018-08-24T07:46:53.339Z,28.27
2018-08-24T07:49:20.913Z,27.41
2018-08-24T07:51:48.351Z,26.84
2018-08-24T07:54:15.772Z,26.90
2018-08-24T07:56:43.198Z,27.27
2018-08-24T07:59:10.889Z,27.71
2018-08-24T08:01:38.342Z,27.65
2018-08-24T08:04:06.045Z,27.78
2018-08-24T08:06:33.525Z,28.04
2018-08-24T08:09:00.996Z,28.33
2018-08-24T08:11:28.417Z,28.95
2018-08-24T08:13:55.827Z,29.02
2018-08-24T08:16:23.266Z,29.74
2018-08-24T08:18:50.712Z,29.42
2018-08-24T08:21:18.105Z,29.64
2018-08-24T08:23:45.521Z,29.62
2018-08-24T08:26:12.961Z,30.04
2018-08-24T08:28:40.360Z,29.03
2018-08-24T08:31:07.838Z,28.13
2018-08-24T08:33:35.500Z,28.49
2018-08-24T08:36:02.934Z,28.93
2018-08-24T08:38:30.441Z,29.26
2018-08-24T08:40:57.891Z,29.59
2018-08-24T08:43:25.347Z,30.07
2018-08-24T08:45:52.772Z,30.02
2018-08-24T08:48:20.206Z,29.71
2018-08-24T08:50:47.613Z,29.55
2018-08-24T08:53:15.083Z,29.42
2018-08-24T08:55:42.489Z,29.52
2018-08-24T08:58:10.033Z,29.78
2018-08-24T09:00:37.455Z,29.40
2018-08-24T09:03:04.895Z,28.88
2018-08-24T09:05:32.310Z,29.09
2018-08-24T09:07:59.935Z,28.89
2018-08-24T09:10:27.404Z,28.67
2018-08-24T09:12:54.903Z,28.93
2018-08-24T09:15:22.277Z,28.86
2018-08-24T09:17:49.766Z,29.16
2018-08-24T09:23:18.851Z,28.97
2018-08-24T09:28:42.424Z,29.11
2018-08-24T09:31:09.885Z,28.92
2018-08-24T09:33:37.281Z,28.64
2018-08-24T09:36:04.748Z,28.49
2018-08-24T09:38:32.216Z,28.75
2018-08-24T09:40:59.695Z,28.98
2018-08-24T09:43:27.232Z,29.02
2018-08-24T09:45:54.676Z,29.29
2018-08-24T09:48:26.541Z,29.35
2018-08-24T09:50:54.005Z,29.42
2018-08-24T09:53:21.865Z,29.75
2018-08-24T09:55:49.293Z,29.69
2018-08-24T09:58:16.770Z,29.67
2018-08-24T10:00:44.258Z,30.04
2018-08-24T10:03:11.641Z,30.09
2018-08-24T10:08:32.306Z,29.16
2018-08-24T10:10:59.756Z,29.38
2018-08-24T10:13:27.221Z,29.95
2018-08-24T10:15:54.650Z,30.30
2018-08-24T10:18:22.158Z,30.28
2018-08-24T10:20:49.556Z,30.42
2018-08-24T10:23:17.046Z,30.08
2018-08-24T10:25:44.487Z,30.05
2018-08-24T10:28:11.892Z,29.95
2018-08-24T10:30:39.309Z,29.96
2018-08-24T10:33:06.751Z,30.18
2018-08-24T10:35:34.328Z,30.43
2018-08-24T10:38:01.794Z,30.34
2018-08-24T10:40:29.181Z,30.53
2018-08-24T10:42:56.652Z,29.86
2018-08-24T10:45:24.140Z,29.36
2018-08-24T10:47:51.648Z,29.35
2018-08-24T10:50:19.067Z,30.12
2018-08-24T10:52:46.459Z,29.67
2018-08-24T10:55:13.918Z,29.55
2018-08-24T10:57:41.348Z,29.30
2018-08-24T11:00:08.832Z,29.70
2018-08-24T11:02:36.258Z,29.68
2018-08-24T11:05:03.771Z,29.99
2018-08-24T11:07:31.228Z,29.81
2018-08-24T11:09:58.711Z,29.78
2018-08-24T11:12:26.237Z,29.60
2018-08-24T11:14:53.692Z,29.86
2018-08-24T11:17:21.132Z,30.18
2018-08-24T11:19:48.549Z,30.35
2018-08-24T11:22:15.986Z,29.76
2018-08-24T11:24:43.381Z,29.42
2018-08-24T11:27:10.801Z,29.13
2018-08-24T11:29:38.288Z,28.92
2018-08-24T11:32:05.770Z,28.65
2018-08-24T11:34:33.281Z,28.66
2018-08-24T11:37:00.850Z,28.87
2018-08-24T11:39:28.338Z,29.23
2018-08-24T11:41:55.908Z,29.44
2018-08-24T11:44:23.228Z,29.53
2018-08-24T11:46:50.710Z,29.94
2018-08-24T11:49:18.232Z,29.49
2018-08-24T11:51:45.673Z,29.70
2018-08-24T11:54:13.214Z,29.83
2018-08-24T11:56:40.573Z,30.13
2018-08-24T11:59:08.149Z,30.56
2018-08-24T12:01:35.616Z,30.26
2018-08-24T12:04:03.165Z,30.40
2018-08-24T12:06:30.597Z,30.75
2018-08-24T12:08:58.146Z,30.86
2018-08-24T12:11:25.759Z,30.98
2018-08-24T12:13:53.260Z,31.29
2018-08-24T12:16:20.199Z,31.36
2018-08-24T12:18:47.219Z,31.68
2018-08-24T12:21:14.192Z,31.65
2018-08-24T12:23:41.159Z,31.20
2018-08-24T12:26:08.143Z,30.55
2018-08-24T12:28:35.914Z,30.33
2018-08-24T12:31:02.981Z,30.22
2018-08-24T12:33:30.010Z,30.44
2018-08-24T12:35:56.961Z,30.40
2018-08-24T12:38:23.943Z,30.10
2018-08-24T12:40:50.929Z,30.16
2018-08-24T12:43:17.969Z,30.24
2018-08-24T12:45:45.009Z,30.41
2018-08-24T12:48:11.988Z,30.84
2018-08-24T12:50:39.075Z,30.97
2018-08-24T12:53:06.053Z,31.00
2018-08-24T12:55:33.135Z,31.07
2018-08-24T12:58:00.161Z,31.41
2018-08-24T13:00:27.208Z,31.63
2018-08-24T13:02:54.175Z,31.54
2018-08-24T13:05:21.125Z,31.69
2018-08-24T13:07:48.274Z,31.51
2018-08-24T13:10:15.284Z,31.47
2018-08-24T13:12:42.310Z,31.32
2018-08-24T13:15:09.366Z,31.25
2018-08-24T13:17:36.304Z,31.23
2018-08-24T13:20:03.298Z,30.87
2018-08-24T13:22:30.304Z,30.51
2018-08-24T13:24:57.344Z,30.30
2018-08-24T13:27:24.376Z,30.71
2018-08-24T13:29:51.278Z,30.92
2018-08-24T13:32:18.982Z,30.63
2018-08-24T13:34:45.981Z,30.12
2018-08-24T13:37:12.985Z,29.94
2018-08-24T13:39:40.390Z,29.79
2018-08-24T13:42:07.594Z,29.94
2018-08-24T13:44:35.020Z,29.98
2018-08-24T13:47:02.089Z,29.87
2018-08-24T13:49:29.054Z,29.58
2018-08-24T13:51:56.664Z,29.47
2018-08-24T13:54:23.599Z,29.42
2018-08-24T13:56:51.080Z,29.58
2018-08-24T13:59:18.071Z,29.57
2018-08-24T14:01:45.035Z,29.43
2018-08-24T14:04:11.976Z,29.20
2018-08-24T14:06:38.926Z,29.06
2018-08-24T14:09:05.927Z,29.02
2018-08-24T14:11:32.976Z,29.10
2018-08-24T14:14:00.123Z,29.01
2018-08-24T14:16:27.116Z,29.01
2018-08-24T14:18:54.168Z,28.78
2018-08-24T14:21:21.191Z,28.69
2018-08-24T14:23:48.172Z,28.69
2018-08-24T14:26:15.192Z,28.52
2018-08-24T14:28:42.167Z,28.46
2018-08-24T14:31:09.130Z,28.51
2018-08-24T14:33:36.613Z,28.56
2018-08-24T14:36:04.013Z,28.43
2018-08-24T14:38:30.958Z,28.06
2018-08-24T14:40:57.973Z,27.93
2018-08-24T14:43:25.482Z,28.00
2018-08-24T14:45:52.450Z,27.88
2018-08-24T14:48:19.450Z,27.75
2018-08-24T14:50:46.867Z,27.82
2018-08-24T14:53:14.446Z,27.67
2018-08-24T14:55:42.252Z,27.67
2018-08-24T14:58:10.131Z,27.53
2018-08-24T15:00:37.196Z,27.77
2018-08-24T15:03:04.731Z,28.15
2018-08-24T15:05:31.674Z,28.45
2018-08-24T15:07:58.773Z,28.48
2018-08-24T15:10:26.355Z,28.48
2018-08-24T15:12:53.345Z,28.28
2018-08-24T15:15:20.350Z,28.29
2018-08-24T15:17:47.388Z,28.58
2018-08-24T15:20:14.398Z,28.35
2018-08-24T15:22:41.417Z,28.13
2018-08-24T15:25:08.723Z,28.32
2018-08-24T15:27:35.745Z,28.32
2018-08-24T15:30:02.817Z,28.44
2018-08-24T15:32:29.817Z,28.41
2018-08-24T15:34:56.814Z,28.23
2018-08-24T15:37:23.822Z,28.34
2018-08-24T15:39:50.784Z,28.56
2018-08-24T15:42:17.827Z,28.91
2018-08-24T15:44:44.975Z,28.67
2018-08-24T15:47:11.944Z,28.52
2018-08-24T15:49:40.305Z,28.62
2018-08-24T15:52:07.272Z,28.29
2018-08-24T15:54:34.363Z,28.02
2018-08-24T15:57:01.335Z,28.07
2018-08-24T15:59:28.446Z,28.30
2018-08-24T16:01:55.438Z,28.30
2018-08-24T16:04:22.493Z,28.19
2018-08-24T16:06:49.535Z,27.99
2018-08-24T16:09:16.568Z,27.84
2018-08-24T16:11:43.987Z,27.73
2018-08-24T16:14:11.139Z,27.47
2018-08-24T16:16:39.674Z,27.28
2018-08-24T16:19:07.043Z,27.31
2018-08-24T16:21:34.271Z,27.05
2018-08-24T16:24:01.971Z,26.92
2018-08-24T16:26:29.081Z,26.83
2018-08-24T16:28:56.563Z,26.99
2018-08-24T16:31:23.616Z,27.03
2018-08-24T16:33:50.662Z,26.99
2018-08-24T16:36:17.657Z,27.09
2018-08-24T16:38:44.695Z,26.99
2018-08-24T16:41:11.746Z,27.10
2018-08-24T16:44:13.005Z,27.25
2018-08-24T16:46:40.127Z,27.05
2018-08-24T16:49:07.097Z,26.85
2018-08-24T16:51:34.188Z,26.60
2018-08-24T16:54:01.183Z,26.49
2018-08-24T16:56:28.184Z,26.52
2018-08-24T16:58:55.273Z,26.56
2018-08-24T17:01:22.295Z,26.44
2018-08-24T17:03:49.382Z,26.38
2018-08-24T17:06:16.764Z,26.32
2018-08-24T17:08:43.888Z,26.48
2018-08-24T17:11:10.871Z,26.43
2018-08-24T17:13:38.179Z,26.47
2018-08-24T17:16:22.719Z,26.42
2018-08-24T17:18:49.765Z,26.29
2018-08-24T17:21:16.826Z,26.10
2018-08-24T17:23:43.838Z,26.08
2018-08-24T17:26:10.844Z,26.05
2018-08-24T17:28:37.962Z,26.10
2018-08-24T17:31:05.530Z,25.91
2018-08-24T17:33:32.979Z,25.82
2018-08-24T17:36:00.464Z,25.78
2018-08-24T17:38:28.001Z,25.63
2018-08-24T17:40:55.453Z,25.52
2018-08-24T17:43:23.115Z,25.59
2018-08-24T17:45:50.605Z,25.46
2018-08-24T17:48:17.565Z,25.34
2018-08-24T17:50:44.611Z,25.30
2018-08-24T17:53:11.900Z,25.17
2018-08-24T17:55:38.983Z,24.83
2018-08-24T17:58:06.384Z,24.58
2018-08-24T18:00:33.834Z,24.54
2018-08-24T18:03:01.303Z,24.46
2018-08-24T18:05:28.764Z,24.37
2018-08-24T18:07:56.219Z,24.24
2018-08-24T18:10:23.799Z,24.34
2018-08-24T18:12:51.262Z,24.33
2018-08-24T18:15:18.684Z,24.31
2018-08-24T18:17:46.139Z,24.16
2018-08-24T18:20:13.619Z,23.97
2018-08-24T18:22:41.181Z,23.81
2018-08-24T18:25:08.627Z,23.71
2018-08-24T18:27:36.124Z,23.55
2018-08-24T18:30:03.569Z,23.38
2018-08-24T18:32:31.039Z,23.43
2018-08-24T18:34:58.557Z,23.41
2018-08-24T18:37:26.021Z,23.34
2018-08-24T18:39:53.495Z,23.27
2018-08-24T18:42:20.946Z,23.35
2018-08-24T18:44:48.441Z,23.34
2018-08-24T18:47:15.977Z,23.33
2018-08-24T18:49:43.944Z,23.37
2018-08-24T18:52:11.380Z,23.34
2018-08-24T18:54:38.833Z,23.21
2018-08-24T18:57:06.255Z,23.09
2018-08-24T18:59:33.884Z,23.09
2018-08-24T19:02:01.372Z,23.05
2018-08-24T19:04:28.767Z,23.00
2018-08-24T19:06:57.082Z,22.91
2018-08-24T19:09:24.538Z,23.01
2018-08-24T19:14:47.316Z,23.04
2018-08-24T19:17:14.802Z,23.00
2018-08-24T19:22:36.508Z,23.00
2018-08-24T19:25:04.020Z,22.94
2018-08-24T19:27:31.580Z,22.85
2018-08-24T19:32:53.257Z,22.92
2018-08-24T19:35:20.748Z,22.85
2018-08-24T19:37:48.397Z,22.87
2018-08-24T19:40:15.864Z,22.87
2018-08-24T19:42:43.341Z,22.83
2018-08-24T19:45:10.903Z,23.02
2018-08-24T19:47:38.401Z,23.24
2018-08-24T19:50:05.867Z,23.31
2018-08-24T19:52:33.334Z,23.19
2018-08-24T19:55:00.878Z,23.14
2018-08-24T19:57:28.300Z,22.92
2018-08-24T19:59:55.800Z,22.88
2018-08-24T20:02:23.230Z,22.70
2018-08-24T20:04:50.623Z,22.72
2018-08-24T20:10:14.935Z,22.82
2018-08-24T20:12:42.523Z,22.83
2018-08-24T20:15:10.058Z,22.80
2018-08-24T20:17:37.542Z,22.82
2018-08-24T20:20:04.975Z,22.79
2018-08-24T20:22:32.554Z,22.73
2018-08-24T20:25:00.029Z,22.70
2018-08-24T20:27:27.492Z,22.80
2018-08-24T20:29:55.000Z,22.90
2018-08-24T20:32:22.439Z,22.84
2018-08-24T20:34:49.921Z,22.71
2018-08-24T20:37:17.329Z,22.57
2018-08-24T20:39:44.791Z,22.52
2018-08-24T20:42:12.204Z,22.38
2018-08-24T20:44:39.663Z,22.26
2018-08-24T20:47:07.246Z,22.15
2018-08-24T20:49:34.698Z,22.10
2018-08-24T20:52:02.142Z,22.03
2018-08-24T20:54:29.694Z,21.97
2018-08-24T20:56:57.137Z,21.89
2018-08-24T20:59:24.597Z,21.84
2018-08-24T21:01:52.031Z,21.84
2018-08-24T21:04:19.627Z,21.80
2018-08-24T21:06:47.011Z,21.93
2018-08-24T21:09:14.497Z,21.88
2018-08-24T21:11:41.984Z,21.85
2018-08-24T21:14:09.518Z,21.83
2018-08-24T21:16:36.935Z,21.86
2018-08-24T21:19:04.391Z,21.93
2018-08-24T21:21:31.899Z,22.05
2018-08-24T21:23:59.407Z,21.92
2018-08-24T21:26:26.968Z,21.98
2018-08-24T21:28:54.470Z,21.96
2018-08-24T21:31:21.923Z,22.02
2018-08-24T21:33:49.522Z,21.92
2018-08-24T21:36:16.955Z,21.92
2018-08-24T21:38:44.423Z,21.83
2018-08-24T21:41:11.824Z,21.83
2018-08-24T21:43:39.258Z,21.90
2018-08-24T21:46:06.754Z,21.99
2018-08-24T21:48:34.272Z,21.99
2018-08-24T21:51:01.737Z,21.94
2018-08-24T21:53:29.191Z,21.93
2018-08-24T21:55:56.690Z,21.81
2018-08-24T21:58:24.166Z,21.81
2018-08-24T22:00:51.656Z,21.76
2018-08-24T22:03:19.106Z,21.67
2018-08-24T22:05:46.591Z,21.74
2018-08-24T22:08:14.070Z,21.86
2018-08-24T22:10:41.502Z,21.89
2018-08-24T22:13:09.048Z,21.70
2018-08-24T22:15:36.495Z,21.77
2018-08-24T22:18:03.911Z,21.87
2018-08-24T22:20:31.317Z,21.80
2018-08-24T22:22:58.811Z,21.74
2018-08-24T22:25:26.297Z,21.63
2018-08-24T22:27:53.769Z,21.57
2018-08-24T22:30:21.220Z,21.63
2018-08-24T22:32:48.655Z,21.69
2018-08-24T22:35:16.116Z,21.51
2018-08-24T22:37:43.590Z,21.29
2018-08-24T22:40:11.087Z,21.03
2018-08-24T22:42:38.544Z,20.97
2018-08-24T22:45:06.016Z,20.94
2018-08-24T22:47:33.489Z,20.93
2018-08-24T22:50:00.916Z,20.94
2018-08-24T22:52:28.357Z,20.91
2018-08-24T22:54:55.882Z,20.91
2018-08-24T22:57:23.355Z,20.90
2018-08-24T22:59:50.844Z,20.74
2018-08-24T23:02:18.357Z,20.74
2018-08-24T23:04:45.743Z,20.75
2018-08-24T23:07:13.183Z,20.71
2018-08-24T23:09:40.648Z,20.78
2018-08-24T23:12:08.856Z,20.96
2018-08-24T23:14:36.380Z,21.01
2018-08-24T23:17:03.876Z,20.92
2018-08-24T23:19:31.409Z,20.73
2018-08-24T23:21:58.924Z,20.70
2018-08-24T23:24:26.526Z,20.70
2018-08-24T23:26:53.962Z,20.62
2018-08-24T23:29:21.461Z,20.54
2018-08-24T23:31:48.884Z,20.48
2018-08-24T23:34:16.407Z,20.50
2018-08-24T23:36:43.853Z,20.44
2018-08-24T23:39:11.292Z,20.43
2018-08-24T23:41:38.742Z,20.40
2018-08-24T23:44:06.288Z,20.31
2018-08-24T23:46:33.803Z,20.25
2018-08-24T23:49:01.245Z,20.23
2018-08-24T23:51:28.813Z,20.20
2018-08-24T23:53:56.382Z,20.07
2018-08-24T23:56:23.792Z,20.06
2018-08-24T23:58:51.591Z,20.11
